Time;durP1;ratioP1;P1;durP2;ratioP2;P2;SDS_P1;SDS_P2;PMS_P1;PMS_P2;Temp;Humidity;BMP_temperature;BMP_pressure;BME280_temperature;BME280_humidity;BME280_pressure;Samples;Min_cycle;Max_cycle;Signal;HPM_P1;HPM_P2
2021/08/15 00:01:16;;;;;;;4.50;2.00;;;20.90;99.90;;;;;;5036224;28;20457;-83
2021/08/15 00:03:43;;;;;;;3.47;2.97;;;20.90;99.90;;;;;;5036597;28;20489;-83
2021/08/15 00:06:10;;;;;;;2.60;2.10;;;20.90;99.90;;;;;;5036432;28;20431;-83
2021/08/15 00:08:38;;;;;;;3.23;2.10;;;20.80;99.90;;;;;;5036582;28;20446;-83
2021/08/15 00:11:05;;;;;;;2.70;2.47;;;20.90;99.90;;;;;;5036480;28;20441;-83
2021/08/15 00:13:32;;;;;;;5.23;1.80;;;20.80;99.90;;;;;;5036161;28;20442;-84
2021/08/15 00:15:59;;;;;;;2.43;1.97;;;20.80;99.90;;;;;;5036118;28;20438;-84
2021/08/15 00:18:26;;;;;;;3.50;2.67;;;20.80;99.90;;;;;;5036309;28;20818;-83
2021/08/15 00:20:53;;;;;;;2.53;2.07;;;20.70;99.90;;;;;;5036337;28;20485;-84
2021/08/15 00:23:20;;;;;;;7.20;2.93;;;20.70;99.90;;;;;;5036061;28;20481;-83
2021/08/15 00:25:48;;;;;;;1.40;1.30;;;20.70;99.90;;;;;;5036277;28;20446;-84
2021/08/15 00:28:14;;;;;;;2.90;2.03;;;20.60;99.90;;;;;;5036181;28;20450;-84
2021/08/15 00:30:41;;;;;;;3.23;2.60;;;20.60;99.90;;;;;;5034906;28;20822;-84
2021/08/15 00:33:08;;;;;;;3.87;1.70;;;20.60;99.90;;;;;;5035838;28;20466;-83
2021/08/15 00:35:34;;;;;;;2.60;1.97;;;20.60;99.90;;;;;;5035753;28;20434;-84
2021/08/15 00:38:01;;;;;;;4.73;2.30;;;20.60;99.90;;;;;;5035804;28;20441;-83
2021/08/15 00:40:28;;;;;;;3.83;2.30;;;20.60;99.90;;;;;;5036164;28;20450;-83
2021/08/15 00:42:56;;;;;;;2.70;1.57;;;20.50;99.90;;;;;;5035476;28;20485;-83
2021/08/15 00:45:23;;;;;;;4.63;2.40;;;20.50;99.90;;;;;;5035824;28;20446;-83
2021/08/15 00:47:50;;;;;;;3.30;1.73;;;20.50;99.90;;;;;;5035950;28;20442;-83
2021/08/15 00:50:18;;;;;;;2.30;1.50;;;20.50;99.90;;;;;;5035749;28;20941;-84
2021/08/15 00:52:45;;;;;;;3.10;1.40;;;20.40;99.90;;;;;;5035594;28;20474;-83
2021/08/15 00:55:12;;;;;;;3.00;2.10;;;20.40;99.90;;;;;;5035428;28;20435;-84
2021/08/15 00:57:42;;;;;;;5.87;2.60;;;20.40;99.90;;;;;;5035326;28;20454;-83
2021/08/15 01:00:12;;;;;;;3.70;1.63;;;20.40;99.90;;;;;;5035611;28;20450;-84
2021/08/15 01:02:40;;;;;;;4.53;2.20;;;20.40;99.90;;;;;;5035387;28;20478;-83
2021/08/15 01:05:08;;;;;;;2.23;1.60;;;20.30;99.90;;;;;;5035232;28;20957;-84
2021/08/15 01:07:35;;;;;;;3.20;2.30;;;20.30;99.90;;;;;;5035273;28;20443;-83
2021/08/15 01:10:02;;;;;;;5.87;2.03;;;20.30;99.90;;;;;;5035500;28;20450;-83
2021/08/15 01:12:29;;;;;;;2.10;1.33;;;20.30;99.90;;;;;;5034993;28;20473;-83
2021/08/15 01:14:57;;;;;;;6.37;3.20;;;20.30;99.90;;;;;;5035218;28;20454;-83
2021/08/15 01:17:26;;;;;;;2.90;2.27;;;20.20;99.90;;;;;;5035029;28;20435;-84
2021/08/15 01:19:53;;;;;;;4.00;2.57;;;20.20;99.90;;;;;;5035245;28;20449;-83
2021/08/15 01:22:20;;;;;;;4.37;3.40;;;20.20;99.90;;;;;;5035016;28;20527;-84
2021/08/15 01:24:47;;;;;;;5.30;3.03;;;20.20;99.90;;;;;;5035964;28;20454;-84
2021/08/15 01:27:15;;;;;;;3.20;2.10;;;20.20;99.90;;;;;;5035110;28;20453;-83
2021/08/15 01:29:44;;;;;;;3.10;2.13;;;20.20;99.90;;;;;;5034634;28;20825;-83
2021/08/15 01:32:12;;;;;;;2.13;1.93;;;20.20;99.90;;;;;;5035088;28;20471;-83
2021/08/15 01:34:38;;;;;;;5.50;1.77;;;20.10;99.90;;;;;;5034723;28;20858;-83
2021/08/15 01:37:07;;;;;;;4.37;2.07;;;20.10;99.90;;;;;;5034872;28;20453;-83
2021/08/15 01:39:33;;;;;;;5.33;2.77;;;20.10;99.90;;;;;;5034493;28;20486;-83
2021/08/15 01:42:00;;;;;;;5.90;2.57;;;20.10;99.90;;;;;;5034317;28;20466;-82
2021/08/15 01:44:27;;;;;;;3.60;2.13;;;20.10;99.90;;;;;;5034401;28;20478;-83
2021/08/15 01:46:55;;;;;;;1.77;1.67;;;20.00;99.90;;;;;;5034713;28;20928;-83
2021/08/15 01:49:21;;;;;;;2.87;1.80;;;20.00;99.90;;;;;;5034639;28;20446;-83
2021/08/15 01:51:48;;;;;;;4.67;2.10;;;20.00;99.90;;;;;;5034517;28;20478;-82
2021/08/15 01:54:15;;;;;;;2.90;2.27;;;20.00;99.90;;;;;;5034594;28;20439;-83
2021/08/15 01:56:42;;;;;;;2.47;1.40;;;20.00;99.90;;;;;;5034510;28;20446;-83
2021/08/15 01:59:08;;;;;;;3.17;1.90;;;19.90;99.90;;;;;;5034392;28;20446;-83
2021/08/15 02:01:35;;;;;;;2.77;2.30;;;19.90;99.90;;;;;;5034547;28;20466;-83
2021/08/15 02:04:04;;;;;;;2.27;1.90;;;19.90;99.90;;;;;;5034222;28;20478;-83
2021/08/15 02:06:30;;;;;;;6.00;2.50;;;19.90;99.90;;;;;;5034028;28;20922;-83
2021/08/15 02:08:58;;;;;;;1.83;1.63;;;19.80;99.90;;;;;;5034190;28;20461;-83
2021/08/15 02:11:25;;;;;;;3.57;2.23;;;19.80;99.90;;;;;;5034131;28;20881;-83
2021/08/15 02:13:51;;;;;;;5.23;2.37;;;19.80;99.90;;;;;;5034162;28;20447;-83
2021/08/15 02:16:18;;;;;;;6.00;2.63;;;19.80;99.90;;;;;;5034068;28;20454;-83
2021/08/15 02:18:45;;;;;;;3.20;2.30;;;19.80;99.90;;;;;;5033743;28;20954;-83
2021/08/15 02:21:13;;;;;;;3.13;2.37;;;19.80;99.90;;;;;;5033776;28;20441;-84
2021/08/15 02:23:40;;;;;;;3.80;2.07;;;19.70;99.90;;;;;;5034186;28;20470;-83
2021/08/15 02:26:07;;;;;;;2.40;2.20;;;19.70;99.90;;;;;;5033987;28;20450;-83
2021/08/15 02:28:33;;;;;;;4.20;2.40;;;19.70;99.90;;;;;;5034018;28;20454;-84
2021/08/15 02:31:00;;;;;;;3.83;2.80;;;19.60;99.90;;;;;;5033846;28;20454;-84
2021/08/15 02:33:27;;;;;;;2.73;2.10;;;19.60;99.90;;;;;;5034574;28;20787;-84
2021/08/15 02:35:54;;;;;;;2.13;1.93;;;19.60;99.90;;;;;;5033763;28;20461;-83
2021/08/15 02:38:22;;;;;;;5.27;2.07;;;19.60;99.90;;;;;;5033527;28;20624;-83
2021/08/15 02:40:49;;;;;;;1.50;1.40;;;19.60;99.90;;;;;;5033461;28;20919;-84
2021/08/15 02:43:16;;;;;;;3.10;1.73;;;19.60;99.90;;;;;;5033793;28;20482;-83
2021/08/15 02:45:43;;;;;;;3.53;2.50;;;19.60;99.90;;;;;;5033377;28;20449;-83
2021/08/15 02:48:09;;;;;;;2.63;2.30;;;19.60;99.90;;;;;;5033589;28;20450;-83
2021/08/15 02:50:36;;;;;;;3.20;1.90;;;19.60;99.90;;;;;;5033262;28;20462;-83
2021/08/15 02:53:03;;;;;;;4.47;2.77;;;19.60;99.90;;;;;;5033436;28;20459;-82
2021/08/15 02:55:32;;;;;;;3.40;1.90;;;19.60;99.90;;;;;;5032523;28;20442;-82
2021/08/15 02:57:58;;;;;;;3.13;1.60;;;19.60;99.90;;;;;;5033461;28;20445;-83
2021/08/15 03:00:25;;;;;;;1.53;1.43;;;19.60;99.90;;;;;;5033126;28;20984;-83
2021/08/15 03:02:52;;;;;;;2.20;2.00;;;19.60;99.90;;;;;;5033303;28;20548;-82
2021/08/15 03:05:20;;;;;;;2.03;1.77;;;19.60;99.90;;;;;;5033415;28;20453;-83
2021/08/15 03:07:47;;;;;;;3.60;2.40;;;19.50;99.90;;;;;;5033343;28;20458;-83
2021/08/15 03:10:14;;;;;;;4.03;2.03;;;19.50;99.90;;;;;;5033378;28;20454;-83
2021/08/15 03:12:42;;;;;;;3.77;1.80;;;19.50;99.90;;;;;;5033510;28;20462;-83
2021/08/15 03:15:10;;;;;;;2.73;2.33;;;19.50;99.90;;;;;;5033960;28;20438;-84
2021/08/15 03:17:37;;;;;;;2.90;2.40;;;19.50;99.90;;;;;;5033012;28;20794;-83
2021/08/15 03:20:05;;;;;;;2.40;2.10;;;19.50;99.90;;;;;;5032965;28;20934;-84
2021/08/15 03:22:31;;;;;;;2.60;1.47;;;19.50;99.90;;;;;;5033123;28;20455;-83
2021/08/15 03:24:59;;;;;;;5.13;2.50;;;19.50;99.90;;;;;;5033150;28;20513;-84
2021/08/15 03:27:26;;;;;;;2.97;1.70;;;19.50;99.90;;;;;;5032915;28;20442;-83
2021/08/15 03:29:54;;;;;;;2.77;1.87;;;19.50;99.90;;;;;;5033123;28;20454;-84
2021/08/15 03:32:20;;;;;;;2.60;2.07;;;19.40;99.90;;;;;;5033095;28;20474;-84
2021/08/15 03:34:47;;;;;;;4.87;2.20;;;19.40;99.90;;;;;;5033091;28;20454;-83
2021/08/15 03:37:14;;;;;;;2.10;1.47;;;19.40;99.90;;;;;;5033026;28;20450;-84
2021/08/15 03:39:41;;;;;;;2.90;1.90;;;19.40;99.90;;;;;;5032721;28;20474;-84
2021/08/15 03:42:08;;;;;;;3.47;1.87;;;19.40;99.90;;;;;;5032978;28;20466;-83
2021/08/15 03:44:34;;;;;;;4.10;2.63;;;19.40;99.90;;;;;;5032662;28;20475;-84
2021/08/15 03:47:03;;;;;;;1.93;1.80;;;19.40;99.90;;;;;;5033242;28;20457;-84
2021/08/15 03:49:29;;;;;;;3.47;1.83;;;19.40;99.90;;;;;;5033076;28;20454;-84
2021/08/15 03:51:57;;;;;;;3.00;2.27;;;19.30;99.90;;;;;;5032634;28;20455;-84
2021/08/15 03:54:24;;;;;;;1.80;1.67;;;19.30;99.90;;;;;;5032740;28;20435;-84
2021/08/15 03:56:51;;;;;;;4.13;2.57;;;19.30;99.90;;;;;;5032923;28;20452;-84
2021/08/15 03:59:18;;;;;;;1.77;1.60;;;19.30;99.90;;;;;;5032944;28;20805;-83
2021/08/15 04:01:46;;;;;;;3.40;1.87;;;19.20;99.90;;;;;;5032624;28;20458;-84
2021/08/15 04:04:14;;;;;;;4.13;2.17;;;19.20;99.90;;;;;;5032824;28;20573;-83
2021/08/15 04:06:41;;;;;;;5.70;2.67;;;19.20;99.90;;;;;;5035745;28;20457;-84
2021/08/15 04:09:09;;;;;;;1.90;1.27;;;19.20;99.90;;;;;;5036129;28;20446;-84
2021/08/15 04:11:36;;;;;;;3.80;2.40;;;19.20;99.90;;;;;;5036380;28;20470;-83
2021/08/15 04:14:02;;;;;;;5.70;2.23;;;19.20;99.90;;;;;;5036419;28;20447;-83
2021/08/15 04:16:29;;;;;;;2.80;2.30;;;19.10;99.90;;;;;;5036174;28;20435;-83
2021/08/15 04:18:56;;;;;;;3.93;3.00;;;19.10;99.90;;;;;;5036673;28;20448;-83
2021/08/15 04:21:24;;;;;;;2.53;2.20;;;19.10;99.90;;;;;;5036584;28;20462;-83
2021/08/15 04:23:52;;;;;;;6.03;3.43;;;19.10;99.90;;;;;;5036196;28;20493;-78
2021/08/15 04:26:18;;;;;;;2.50;1.77;;;19.10;99.90;;;;;;5035912;28;20427;-78
2021/08/15 04:28:45;;;;;;;3.90;2.37;;;19.00;99.90;;;;;;5036121;28;20455;-78
2021/08/15 04:31:12;;;;;;;2.33;2.13;;;19.00;99.90;;;;;;5036035;28;20447;-78
2021/08/15 04:33:39;;;;;;;5.50;2.10;;;19.00;99.90;;;;;;5036043;28;20447;-78
2021/08/15 04:36:06;;;;;;;2.37;1.63;;;19.00;99.90;;;;;;5036029;28;20450;-78
2021/08/15 04:38:34;;;;;;;2.67;1.90;;;19.00;99.90;;;;;;5035847;28;20470;-78
2021/08/15 04:41:01;;;;;;;7.40;1.90;;;19.00;99.90;;;;;;5035784;28;20454;-78
2021/08/15 04:43:28;;;;;;;2.10;1.37;;;19.00;99.90;;;;;;5035696;28;20462;-83
2021/08/15 04:45:55;;;;;;;2.57;1.63;;;19.00;99.90;;;;;;5035578;28;20435;-82
2021/08/15 04:48:21;;;;;;;3.17;1.73;;;19.00;99.90;;;;;;5035783;28;20478;-83
2021/08/15 04:50:48;;;;;;;2.50;2.03;;;19.00;99.90;;;;;;5035583;28;20829;-83
2021/08/15 04:53:16;;;;;;;10.37;2.13;;;19.00;99.90;;;;;;5035583;28;20497;-83
2021/08/15 04:55:44;;;;;;;2.03;1.70;;;19.00;99.90;;;;;;5035633;28;20446;-83
2021/08/15 04:58:10;;;;;;;2.87;2.20;;;19.10;99.90;;;;;;5035563;28;20453;-83
2021/08/15 05:00:37;;;;;;;2.83;1.67;;;19.10;99.90;;;;;;5035582;28;20443;-83
2021/08/15 05:03:05;;;;;;;3.30;1.83;;;19.10;99.90;;;;;;5035470;28;20467;-83
2021/08/15 05:05:32;;;;;;;5.13;2.40;;;19.10;99.90;;;;;;5037361;28;21005;-84
2021/08/15 05:07:59;;;;;;;4.07;1.83;;;19.10;99.90;;;;;;5035902;28;20485;-84
2021/08/15 05:10:26;;;;;;;5.67;2.00;;;19.20;99.90;;;;;;5036279;28;20469;-83
2021/08/15 05:12:54;;;;;;;3.77;1.80;;;19.20;99.90;;;;;;5035909;28;20497;-84
2021/08/15 05:15:21;;;;;;;4.57;2.20;;;19.30;99.90;;;;;;5036209;28;20446;-84
2021/08/15 05:17:47;;;;;;;4.93;1.70;;;19.30;99.90;;;;;;5034834;28;20964;-85
2021/08/15 05:20:14;;;;;;;1.90;1.40;;;19.40;99.90;;;;;;5035531;28;20458;-85
2021/08/15 05:22:41;;;;;;;2.60;2.33;;;19.40;99.90;;;;;;5035633;28;20494;-84
2021/08/15 05:25:09;;;;;;;4.73;2.50;;;19.40;99.90;;;;;;5036155;28;20482;-85
2021/08/15 05:27:36;;;;;;;2.80;1.87;;;19.50;99.90;;;;;;5035422;28;20454;-84
2021/08/15 05:30:05;;;;;;;2.40;1.83;;;19.50;99.90;;;;;;5035615;28;20454;-84
2021/08/15 05:32:32;;;;;;;3.03;2.20;;;19.50;99.90;;;;;;5035975;28;20467;-84
2021/08/15 05:34:58;;;;;;;2.87;1.90;;;19.60;99.90;;;;;;5035980;28;20461;-85
2021/08/15 05:37:25;;;;;;;3.13;1.90;;;19.60;99.90;;;;;;5035590;28;20443;-84
2021/08/15 05:39:52;;;;;;;4.43;2.70;;;19.60;99.90;;;;;;5035451;28;20478;-84
2021/08/15 05:42:19;;;;;;;4.10;2.20;;;19.70;99.90;;;;;;5035627;28;20474;-84
2021/08/15 05:44:45;;;;;;;3.27;2.00;;;19.70;99.90;;;;;;5035491;28;20482;-84
2021/08/15 05:47:13;;;;;;;2.07;1.97;;;19.80;99.90;;;;;;5035197;28;20470;-83
2021/08/15 05:49:40;;;;;;;4.07;2.10;;;19.80;99.90;;;;;;5035198;28;20442;-83
2021/08/15 05:52:07;;;;;;;4.43;1.80;;;19.80;99.90;;;;;;5035306;28;20470;-84
2021/08/15 05:54:33;;;;;;;3.20;2.30;;;19.90;99.90;;;;;;5035443;28;20430;-85
2021/08/15 05:57:00;;;;;;;1.40;1.30;;;20.00;99.90;;;;;;5035114;28;20449;-84
2021/08/15 05:59:27;;;;;;;2.70;1.90;;;20.10;99.90;;;;;;5035093;28;20445;-84
2021/08/15 06:01:55;;;;;;;3.57;1.97;;;20.20;99.90;;;;;;5036818;28;20977;-84
2021/08/15 06:04:23;;;;;;;3.00;2.07;;;20.30;99.90;;;;;;5035046;28;20485;-83
2021/08/15 06:06:49;;;;;;;3.27;2.13;;;20.30;99.90;;;;;;5035187;28;20459;-84
2021/08/15 06:09:16;;;;;;;3.27;2.00;;;20.40;99.90;;;;;;5035802;28;20801;-84
2021/08/15 06:11:43;;;;;;;4.07;1.60;;;20.50;99.90;;;;;;5034561;28;20455;-85
2021/08/15 06:14:10;;;;;;;3.97;2.10;;;20.60;99.90;;;;;;5035057;28;20450;-85
2021/08/15 06:16:36;;;;;;;2.67;2.00;;;20.80;99.90;;;;;;5034896;28;20918;-84
2021/08/15 06:19:03;;;;;;;5.50;2.53;;;20.90;99.90;;;;;;5034161;28;20450;-79
2021/08/15 06:21:31;;;;;;;3.47;2.70;;;21.10;99.90;;;;;;5034057;28;20473;-79
2021/08/15 06:23:58;;;;;;;2.33;1.93;;;21.30;99.90;;;;;;5033972;28;20473;-79
2021/08/15 06:26:25;;;;;;;2.90;2.57;;;21.50;99.90;;;;;;5034023;28;20450;-78
2021/08/15 06:28:52;;;;;;;3.17;1.83;;;21.50;99.90;;;;;;5033785;28;20440;-79
2021/08/15 06:31:19;;;;;;;3.67;2.00;;;21.70;99.90;;;;;;5033813;28;20453;-78
2021/08/15 06:33:46;;;;;;;7.73;4.27;;;21.70;99.90;;;;;;5033996;28;20941;-78
2021/08/15 06:36:12;;;;;;;3.87;2.20;;;21.80;99.90;;;;;;5034425;28;20442;-79
2021/08/15 06:38:41;;;;;;;4.90;2.80;;;21.80;99.90;;;;;;5033505;28;20478;-78
2021/08/15 06:41:08;;;;;;;4.37;2.53;;;21.90;99.90;;;;;;5033682;28;20445;-79
2021/08/15 06:43:35;;;;;;;4.80;2.63;;;21.90;99.90;;;;;;5034391;28;20454;-81
2021/08/15 06:46:02;;;;;;;3.73;2.40;;;22.00;99.90;;;;;;5033383;28;20588;-79
2021/08/15 06:48:29;;;;;;;3.03;2.83;;;22.10;99.90;;;;;;5033178;28;20829;-79
2021/08/15 06:50:58;;;;;;;3.10;2.27;;;22.30;99.90;;;;;;5033438;28;20970;-78
2021/08/15 06:53:25;;;;;;;4.70;2.97;;;22.40;99.90;;;;;;5033733;28;20465;-78
2021/08/15 06:55:53;;;;;;;4.10;2.50;;;22.50;99.90;;;;;;5033472;28;20493;-78
2021/08/15 06:58:20;;;;;;;3.33;2.37;;;22.70;99.90;;;;;;5033921;28;20196;-79
2021/08/15 07:00:47;;;;;;;3.20;2.33;;;22.80;99.90;;;;;;5034162;28;20226;-79
2021/08/15 07:03:14;;;;;;;2.60;2.40;;;23.00;99.90;;;;;;5033189;28;20223;-79
2021/08/15 07:05:40;;;;;;;6.33;2.93;;;23.10;99.90;;;;;;5034202;28;20211;-79
2021/08/15 07:08:07;;;;;;;5.33;3.93;;;23.20;99.90;;;;;;5033267;28;20667;-79
2021/08/15 07:10:34;;;;;;;4.50;2.87;;;23.30;99.90;;;;;;5034818;28;20437;-80
2021/08/15 07:13:05;;;;;;;10.40;3.20;;;23.40;99.90;;;;;;5035011;28;20234;-81
2021/08/15 07:15:32;;;;;;;3.35;2.55;;;23.60;99.90;;;;;;5035590;28;20195;-79
2021/08/15 07:17:59;;;;;;;10.85;3.30;;;23.70;99.90;;;;;;5033177;28;20819;-79
2021/08/15 07:20:27;;;;;;;5.47;2.75;;;23.70;99.90;;;;;;5033245;28;20211;-79
2021/08/15 07:22:55;;;;;;;3.03;2.33;;;23.90;99.90;;;;;;5033967;28;20235;-79
2021/08/15 07:25:24;;;;;;;3.53;2.67;;;23.90;99.90;;;;;;5033386;28;20223;-79
2021/08/15 07:27:51;;;;;;;6.93;2.78;;;24.00;99.90;;;;;;5033444;28;20203;-79
2021/08/15 07:30:19;;;;;;;5.10;2.92;;;24.00;99.90;;;;;;5032880;28;20678;-79
2021/08/15 07:32:51;;;;;;;4.32;2.88;;;24.20;99.90;;;;;;5032812;28;20734;-79
2021/08/15 07:35:18;;;;;;;7.15;2.70;;;24.30;99.90;;;;;;5033105;28;20210;-79
2021/08/15 07:37:44;;;;;;;3.25;2.85;;;24.40;99.90;;;;;;5033248;28;20614;-79
2021/08/15 07:40:12;;;;;;;5.68;3.38;;;24.50;99.90;;;;;;5032504;28;20231;-79
2021/08/15 07:42:39;;;;;;;4.13;2.53;;;24.60;99.90;;;;;;5035561;28;20598;-79
2021/08/15 07:45:07;;;;;;;3.10;2.47;;;24.70;99.90;;;;;;5035759;28;20231;-79
2021/08/15 07:47:35;;;;;;;3.55;2.53;;;24.80;99.90;;;;;;5035334;28;20214;-79
2021/08/15 07:50:01;;;;;;;3.42;2.00;;;24.90;99.90;;;;;;5035540;28;20559;-79
2021/08/15 07:52:28;;;;;;;5.10;3.03;;;25.00;99.90;;;;;;5035424;28;20315;-79
2021/08/15 07:54:55;;;;;;;4.50;2.70;;;25.10;99.90;;;;;;5035495;28;20207;-79
2021/08/15 07:57:22;;;;;;;3.75;2.67;;;25.10;99.90;;;;;;5035155;28;20679;-79
2021/08/15 07:59:49;;;;;;;3.28;2.47;;;25.20;99.90;;;;;;5035464;28;20254;-79
2021/08/15 08:02:17;;;;;;;2.95;2.67;;;25.30;99.90;;;;;;5035202;28;20231;-79
2021/08/15 08:04:45;;;;;;;3.40;2.33;;;25.40;99.90;;;;;;5035997;28;20211;-79
2021/08/15 08:07:13;;;;;;;3.10;2.33;;;25.60;99.90;;;;;;5034980;28;20208;-79
2021/08/15 08:09:39;;;;;;;7.03;3.45;;;25.70;99.90;;;;;;5035035;28;20682;-80
2021/08/15 08:12:07;;;;;;;2.50;1.98;;;25.90;99.90;;;;;;5035201;28;20223;-79
2021/08/15 08:14:33;;;;;;;3.75;3.05;;;25.90;99.90;;;;;;5034921;28;20655;-80
2021/08/15 08:17:00;;;;;;;3.42;2.40;;;25.90;99.90;;;;;;5034888;28;20206;-80
2021/08/15 08:19:27;;;;;;;2.45;2.25;;;26.00;99.90;;;;;;5035217;28;20192;-80
2021/08/15 08:21:55;;;;;;;3.80;2.63;;;26.20;99.90;;;;;;5035018;28;20594;-80
2021/08/15 08:24:22;;;;;;;3.17;2.22;;;26.20;99.90;;;;;;5034827;28;20188;-80
2021/08/15 08:26:48;;;;;;;2.90;2.50;;;26.20;99.90;;;;;;5034988;28;20215;-79
2021/08/15 08:29:15;;;;;;;2.97;2.45;;;26.30;99.90;;;;;;5034730;28;20719;-80
2021/08/15 08:31:42;;;;;;;2.92;2.08;;;26.40;99.90;;;;;;5034897;28;20231;-80
2021/08/15 08:34:09;;;;;;;3.15;2.85;;;26.50;99.90;;;;;;5034970;28;20190;-80
2021/08/15 08:36:35;;;;;;;2.95;2.53;;;26.60;99.90;;;;;;5034945;28;20196;-80
2021/08/15 08:39:04;;;;;;;3.90;2.50;;;26.50;99.90;;;;;;4998259;28;1059164;-80
2021/08/15 08:41:32;;;;;;;2.25;2.05;;;26.70;99.90;;;;;;5035860;28;20223;-80
2021/08/15 08:44:00;;;;;;;2.80;2.60;;;26.80;99.90;;;;;;5035718;28;20195;-79
2021/08/15 08:46:27;;;;;;;6.65;3.05;;;27.00;99.90;;;;;;5035499;28;20583;-79
2021/08/15 08:48:54;;;;;;;3.00;2.40;;;26.90;99.90;;;;;;5035788;28;20219;-80
2021/08/15 08:51:22;;;;;;;2.90;2.70;;;26.90;99.90;;;;;;5035357;28;20232;-80
2021/08/15 08:53:50;;;;;;;4.28;2.92;;;27.00;99.90;;;;;;5035048;28;20207;-79
2021/08/15 08:56:21;;;;;;;3.90;2.72;;;27.10;99.90;;;;;;5035661;28;20204;-80
2021/08/15 08:58:48;;;;;;;3.53;2.63;;;27.10;99.90;;;;;;5036330;28;20210;-80
2021/08/15 09:01:15;;;;;;;7.00;3.13;;;27.20;99.90;;;;;;5035551;28;20195;-80
2021/08/15 09:03:42;;;;;;;7.78;2.83;;;27.30;99.90;;;;;;5035492;28;20211;-80
2021/08/15 09:06:19;;;;;;;3.30;1.95;;;27.30;99.90;;;;;;5035148;28;20721;-79
2021/08/15 09:08:46;;;;;;;2.60;2.03;;;27.40;99.90;;;;;;5035670;28;20195;-80
2021/08/15 09:11:15;;;;;;;3.00;2.70;;;27.50;99.90;;;;;;5035733;28;20548;-80
2021/08/15 09:13:44;;;;;;;3.25;2.28;;;27.80;99.90;;;;;;5035079;28;20200;-79
2021/08/15 09:16:11;;;;;;;4.43;2.65;;;28.00;99.90;;;;;;5035307;28;20213;-80
2021/08/15 09:18:38;;;;;;;3.53;2.65;;;28.20;99.90;;;;;;5034962;28;20667;-80
2021/08/15 09:21:05;;;;;;;3.03;1.77;;;28.30;99.90;;;;;;5035128;28;20614;-79
2021/08/15 09:23:34;;;;;;;3.55;3.03;;;28.50;99.90;;;;;;5035118;28;20292;-80
2021/08/15 09:26:22;;;;;;;3.45;3.10;;;28.50;99.90;;;;;;5035155;28;20248;-80
2021/08/15 09:28:51;;;;;;;4.15;2.45;;;28.50;99.90;;;;;;5030279;28;20209;-80
2021/08/15 09:31:24;;;;;;;4.13;3.65;;;28.40;99.90;;;;;;5034886;28;20215;-80
2021/08/15 09:33:52;;;;;;;2.85;2.63;;;28.20;99.90;;;;;;5034610;28;20578;-81
2021/08/15 09:36:30;;;;;;;2.92;2.63;;;28.10;99.90;;;;;;5034938;28;20199;-81
2021/08/15 09:38:58;;;;;;;2.97;2.78;;;28.20;99.90;;;;;;5034437;28;20228;-80
2021/08/15 09:41:27;;;;;;;3.28;2.97;;;28.20;99.90;;;;;;5034791;28;20222;-80
2021/08/15 09:44:24;;;;;;;2.90;2.17;;;28.10;99.90;;;;;;5034814;28;20198;-80
2021/08/15 09:47:12;;;;;;;2.97;2.42;;;28.20;99.90;;;;;;5034317;28;20610;-81
2021/08/15 09:49:41;;;;;;;2.78;2.00;;;28.40;99.90;;;;;;5030123;28;20213;-79
2021/08/15 09:52:10;;;;;;;5.30;2.78;;;28.50;99.90;;;;;;5034498;28;20229;-80
2021/08/15 09:54:38;;;;;;;4.50;2.53;;;28.60;99.90;;;;;;5034274;28;20181;-80
2021/08/15 09:57:09;;;;;;;2.67;2.35;;;28.70;99.90;;;;;;5034943;28;20294;-80
2021/08/15 09:59:38;;;;;;;4.88;2.97;;;28.90;99.90;;;;;;5034480;28;20199;-80
2021/08/15 10:02:07;;;;;;;4.90;2.72;;;28.90;99.90;;;;;;5034419;28;20222;-79
2021/08/15 10:04:34;;;;;;;2.67;2.45;;;28.70;99.90;;;;;;5034079;28;20189;-80
2021/08/15 10:07:01;;;;;;;5.15;2.97;;;28.60;99.90;;;;;;5034478;28;20242;-80
2021/08/15 10:09:30;;;;;;;4.63;3.33;;;28.40;99.90;;;;;;5033976;28;20649;-80
2021/08/15 10:11:57;;;;;;;3.67;2.78;;;28.40;99.90;;;;;;5034261;28;20312;-80
2021/08/15 10:14:24;;;;;;;3.53;2.50;;;28.50;99.90;;;;;;5034161;28;20192;-79
2021/08/15 10:16:57;;;;;;;3.05;2.72;;;28.50;99.90;;;;;;5033851;28;20192;-80
2021/08/15 10:19:38;;;;;;;4.22;3.17;;;28.60;99.90;;;;;;5034340;28;20197;-80
2021/08/15 10:22:06;;;;;;;3.67;2.88;;;28.70;99.90;;;;;;5033907;28;20231;-79
2021/08/15 10:24:45;;;;;;;4.00;2.83;;;29.00;99.90;;;;;;5034460;28;20544;-80
2021/08/15 10:27:48;;;;;;;3.58;2.50;;;29.20;99.90;;;;;;5034300;28;20235;-80
2021/08/15 10:30:47;;;;;;;2.72;2.53;;;29.40;99.90;;;;;;5034187;28;20187;-79
2021/08/15 10:33:19;;;;;;;4.80;3.08;;;29.70;99.90;;;;;;5033960;28;20255;-78
2021/08/15 10:36:26;;;;;;;3.80;2.80;;;30.00;99.90;;;;;;5033845;28;20188;-79
2021/08/15 10:38:55;;;;;;;7.40;4.15;;;30.00;99.90;;;;;;5033232;28;20326;-79
2021/08/15 10:41:51;;;;;;;2.60;2.35;;;29.80;99.90;;;;;;5033662;28;20235;-79
2021/08/15 10:44:19;;;;;;;4.57;2.60;;;29.70;99.90;;;;;;5033667;28;20188;-81
2021/08/15 10:47:12;;;;;;;3.97;2.95;;;29.80;99.90;;;;;;5033224;28;20222;-79
2021/08/15 10:49:55;;;;;;;2.50;2.30;;;30.00;99.90;;;;;;5032134;28;20238;-80
2021/08/15 10:52:34;;;;;;;2.92;2.65;;;30.30;99.90;;;;;;5033275;28;20239;-80
2021/08/15 10:55:04;;;;;;;3.50;2.30;;;30.40;99.90;;;;;;5033579;28;20198;-79
2021/08/15 10:57:35;;;;;;;3.63;3.28;;;31.00;99.90;;;;;;5034016;28;20212;-79
2021/08/15 11:00:02;;;;;;;3.47;2.33;;;31.60;99.90;;;;;;5033859;28;20212;-79
2021/08/15 11:02:33;;;;;;;3.40;2.50;;;32.00;99.90;;;;;;5033377;28;20239;-79
2021/08/15 11:05:02;;;;;;;2.00;1.80;;;32.50;99.90;;;;;;5033143;28;20200;-79
2021/08/15 11:07:36;;;;;;;2.25;2.05;;;32.70;99.90;;;;;;5033475;28;20216;-80
2021/08/15 11:10:04;;;;;;;3.13;2.83;;;32.70;99.90;;;;;;5033142;28;20190;-80
2021/08/15 11:12:32;;;;;;;3.05;2.85;;;32.20;99.90;;;;;;5033214;28;20226;-80
2021/08/15 11:15:08;;;;;;;3.03;2.03;;;32.10;99.90;;;;;;5032648;28;20197;-79
2021/08/15 11:17:37;;;;;;;7.60;2.45;;;31.60;99.90;;;;;;5033253;28;20204;-78
2021/08/15 11:20:33;;;;;;;3.67;2.92;;;31.40;99.80;;;;;;5032952;28;20709;-79
2021/08/15 11:23:08;;;;;;;7.50;2.00;;;31.30;99.90;;;;;;5026062;28;20235;-79
2021/08/15 11:25:35;;;;;;;3.92;2.85;;;31.10;99.90;;;;;;5032827;28;20195;-78
2021/08/15 11:28:02;;;;;;;3.28;2.30;;;31.10;99.90;;;;;;5032913;28;20643;-79
2021/08/15 11:30:29;;;;;;;3.17;2.60;;;31.10;99.90;;;;;;5033140;28;20202;-79
2021/08/15 11:32:57;;;;;;;2.83;2.22;;;30.90;99.90;;;;;;5033070;28;20237;-79
2021/08/15 11:35:30;;;;;;;5.28;2.47;;;30.60;99.90;;;;;;5033037;28;20273;-79
2021/08/15 11:37:58;;;;;;;2.97;2.67;;;30.30;99.90;;;;;;5033092;28;20199;-79
2021/08/15 11:40:27;;;;;;;3.33;2.50;;;29.90;99.90;;;;;;5032753;28;20243;-79
2021/08/15 11:42:59;;;;;;;2.90;2.10;;;29.40;99.90;;;;;;5032809;28;20230;-79
2021/08/15 11:45:31;;;;;;;3.25;2.95;;;29.10;99.90;;;;;;5033028;28;20226;-79
2021/08/15 11:48:06;;;;;;;2.55;2.35;;;28.80;99.90;;;;;;5032634;28;20219;-79
2021/08/15 11:50:34;;;;;;;2.42;2.20;;;28.60;99.90;;;;;;5033004;28;20226;-79
2021/08/15 11:53:02;;;;;;;2.75;2.55;;;28.50;99.90;;;;;;5032555;28;20225;-79
2021/08/15 11:55:30;;;;;;;6.40;2.63;;;28.50;99.90;;;;;;5032898;28;20204;-79
2021/08/15 11:57:59;;;;;;;3.67;2.65;;;28.80;99.90;;;;;;5032672;28;20672;-79
2021/08/15 12:00:28;;;;;;;3.88;2.20;;;29.00;99.90;;;;;;5032822;28;20223;-79
2021/08/15 12:03:08;;;;;;;7.13;3.35;;;29.00;99.90;;;;;;5032666;28;20241;-79
2021/08/15 12:05:38;;;;;;;3.47;2.60;;;28.60;99.90;;;;;;5032510;28;20674;-80
2021/08/15 12:08:08;;;;;;;3.85;2.17;;;28.00;99.90;;;;;;5032682;28;20282;-80
2021/08/15 12:10:44;;;;;;;3.90;3.15;;;27.30;99.90;;;;;;5032933;28;20199;-80
2021/08/15 12:13:13;;;;;;;5.35;3.33;;;26.70;99.90;;;;;;5032687;28;20591;-81
2021/08/15 12:15:41;;;;;;;3.83;3.42;;;25.90;99.90;;;;;;5032270;28;20203;-79
2021/08/15 12:18:08;;;;;;;3.55;2.85;;;25.40;99.90;;;;;;5032276;28;20683;-81
2021/08/15 12:20:43;;;;;;;2.83;1.88;;;24.70;99.90;;;;;;5032389;28;20694;-80
2021/08/15 12:23:12;;;;;;;2.38;2.17;;;23.90;99.90;;;;;;5032606;28;20235;-80
2021/08/15 12:25:38;;;;;;;3.97;1.40;;;23.30;99.90;;;;;;5032190;28;20691;-81
2021/08/15 12:28:10;;;;;;;2.10;1.37;;;22.60;99.90;;;;;;5035746;28;20235;-81
2021/08/15 12:30:37;;;;;;;1.33;1.03;;;21.90;99.90;;;;;;5035835;28;20207;-81
2021/08/15 12:33:22;;;;;;;6.97;1.57;;;21.30;99.90;;;;;;5035959;28;20469;-80
2021/08/15 12:35:49;;;;;;;5.90;2.07;;;20.90;99.90;;;;;;5036134;28;20524;-80
2021/08/15 12:38:28;;;;;;;1.60;1.03;;;20.50;99.90;;;;;;5036019;28;20456;-80
2021/08/15 12:40:55;;;;;;;1.87;1.20;;;20.20;99.90;;;;;;5036016;28;20415;-79
2021/08/15 12:43:25;;;;;;;1.63;1.43;;;20.20;99.90;;;;;;5035569;28;21001;-80
2021/08/15 12:45:52;;;;;;;1.57;1.03;;;20.10;99.90;;;;;;5035883;28;20453;-82
2021/08/15 12:48:20;;;;;;;4.93;1.73;;;20.00;99.90;;;;;;5035813;28;20493;-81
2021/08/15 12:50:58;;;;;;;2.67;1.60;;;20.00;99.90;;;;;;5035810;28;20449;-84
2021/08/15 12:53:33;;;;;;;1.20;0.80;;;19.80;99.90;;;;;;5035501;28;20459;-84